Time;durP1;ratioP1;P1;durP2;ratioP2;P2;SDS_P1;SDS_P2;PMS_P1;PMS_P2;Temp;Humidity;BMP_temperature;BMP_pressure;BME280_temperature;BME280_humidity;BME280_pressure;Samples;Min_cycle;Max_cycle;Signal;HPM_P1;HPM_P2
2022/04/29 00:02:02;;;;;;;11.70;6.32;;;10.90;99.90;;;;;;6642560;88;20184;-78
2022/04/29 00:12:06;;;;;;;11.35;6.37;;;10.70;99.90;;;;;;6626674;89;20223;-79
2022/04/29 00:22:07;;;;;;;9.43;6.03;;;10.60;99.90;;;;;;6625782;89;20564;-79
2022/04/29 00:32:08;;;;;;;11.30;6.35;;;10.30;99.90;;;;;;6625637;89;20272;-79
2022/04/29 00:42:16;;;;;;;13.27;5.93;;;10.10;99.90;;;;;;6625419;89;20272;-79
2022/04/29 00:52:18;;;;;;;11.00;6.20;;;10.00;99.90;;;;;;6638364;88;20699;-79
2022/04/29 01:02:19;;;;;;;10.55;6.00;;;9.90;99.90;;;;;;6642150;88;20194;-79
2022/04/29 01:12:20;;;;;;;15.82;6.50;;;9.90;99.90;;;;;;6656901;88;20191;-79
2022/04/29 01:22:21;;;;;;;13.82;6.30;;;9.80;99.90;;;;;;6643944;89;20224;-79
2022/04/29 01:32:22;;;;;;;14.20;6.50;;;9.30;99.90;;;;;;6611932;89;20185;-79
2022/04/29 01:42:23;;;;;;;12.37;6.60;;;9.40;99.90;;;;;;6641129;89;20233;-79
2022/04/29 01:52:24;;;;;;;15.00;7.17;;;9.10;99.90;;;;;;6642261;88;20329;-79
2022/04/29 02:02:25;;;;;;;12.25;6.68;;;9.00;99.90;;;;;;6707013;88;20690;-80
2022/04/29 02:12:25;;;;;;;11.48;6.78;;;9.10;99.90;;;;;;6710641;88;20671;-79
2022/04/29 02:22:26;;;;;;;16.08;7.50;;;9.00;99.90;;;;;;6711035;88;20205;-79
2022/04/29 02:32:27;;;;;;;16.83;8.38;;;8.90;99.90;;;;;;6710604;88;20625;-79
2022/04/29 02:42:28;;;;;;;17.55;7.80;;;8.80;99.90;;;;;;6711004;88;20667;-79
2022/04/29 03:02:32;;;;;;;15.07;8.10;;;9.00;99.90;;;;;;6693904;88;20215;-81
2022/04/29 03:12:32;;;;;;;12.52;7.60;;;8.80;99.90;;;;;;6767348;88;20717;-80
2022/04/29 03:22:33;;;;;;;13.32;7.25;;;8.70;99.90;;;;;;6748817;88;20622;-80
2022/04/29 03:32:33;;;;;;;15.73;8.13;;;8.70;99.90;;;;;;6749105;88;20172;-80
2022/04/29 03:42:34;;;;;;;17.05;7.68;;;8.60;99.90;;;;;;6751058;88;20191;-79
2022/04/29 03:52:43;;;;;;;14.93;7.97;;;8.90;99.90;;;;;;6748448;88;20189;-79
2022/04/29 04:02:44;;;;;;;13.93;7.80;;;8.50;99.90;;;;;;6747951;88;20209;-78
2022/04/29 04:12:46;;;;;;;15.07;7.82;;;8.70;99.90;;;;;;6744545;88;20208;-81
2022/04/29 04:22:47;;;;;;;16.45;8.38;;;8.60;99.90;;;;;;6747873;88;20207;-78
2022/04/29 04:32:47;;;;;;;17.58;9.00;;;8.60;99.90;;;;;;6743656;88;20192;-81
2022/04/29 04:42:48;;;;;;;18.48;9.85;;;8.60;99.90;;;;;;6745957;88;20202;-81
2022/04/29 04:52:48;;;;;;;15.25;8.85;;;8.70;99.90;;;;;;6751583;88;20214;-82
2022/04/29 05:02:49;;;;;;;18.02;8.98;;;8.70;99.90;;;;;;6750805;88;20201;-81
2022/04/29 05:12:49;;;;;;;16.75;9.55;;;9.00;99.90;;;;;;6746681;88;20307;-80
2022/04/29 05:22:50;;;;;;;19.42;9.48;;;9.00;99.90;;;;;;6750361;88;20212;-81
2022/04/29 05:32:50;;;;;;;19.42;10.45;;;9.00;99.90;;;;;;6750305;88;20191;-81
2022/04/29 05:42:52;;;;;;;22.00;10.27;;;9.30;99.90;;;;;;6742417;88;20302;-77
2022/04/29 05:52:53;;;;;;;17.48;10.13;;;9.70;99.90;;;;;;6742431;88;20176;-79
2022/04/29 06:02:53;;;;;;;20.05;10.60;;;10.00;99.90;;;;;;6745667;88;20172;-78
2022/04/29 06:12:54;;;;;;;20.40;10.27;;;10.20;99.90;;;;;;6742319;88;20322;-78
2022/04/29 06:22:54;;;;;;;18.50;10.30;;;10.30;99.90;;;;;;6740590;88;20208;-79
2022/04/29 06:32:55;;;;;;;20.33;11.05;;;10.30;99.90;;;;;;6742364;88;20196;-80
2022/04/29 06:42:55;;;;;;;19.65;11.23;;;10.80;99.90;;;;;;6740470;88;20189;-79
2022/04/29 06:52:56;;;;;;;22.02;11.38;;;10.80;99.90;;;;;;6742980;88;20200;-79
2022/04/29 07:02:56;;;;;;;21.27;11.57;;;10.90;99.90;;;;;;6742862;88;20219;-78
2022/04/29 07:12:57;;;;;;;21.15;12.20;;;11.30;99.90;;;;;;6737773;88;20197;-81
2022/04/29 07:22:57;;;;;;;20.58;11.07;;;11.30;99.90;;;;;;6743964;88;20220;-79
2022/04/29 07:32:58;;;;;;;22.48;11.68;;;11.90;99.90;;;;;;6740096;88;20281;-81
2022/04/29 07:42:59;;;;;;;19.73;11.57;;;12.00;99.90;;;;;;6742649;88;20664;-79
2022/04/29 07:53:01;;;;;;;23.17;12.13;;;12.50;99.90;;;;;;6743064;88;20191;-80
2022/04/29 08:03:01;;;;;;;20.12;11.20;;;12.70;99.90;;;;;;6744019;88;20292;-79
2022/04/29 08:13:05;;;;;;;19.77;11.18;;;13.20;99.90;;;;;;6743248;88;20303;-80
2022/04/29 08:23:05;;;;;;;20.35;11.07;;;13.70;99.90;;;;;;6746354;88;20189;-80
2022/04/29 08:33:14;;;;;;;21.00;10.48;;;14.00;99.90;;;;;;6746450;88;20247;-80
2022/04/29 08:43:17;;;;;;;18.52;11.00;;;14.80;99.90;;;;;;6747390;88;20184;-80
2022/04/29 09:13:30;;;;;;;17.98;11.38;;;15.60;99.90;;;;;;6729696;87;20179;-80
2022/04/29 09:23:31;;;;;;;18.25;11.02;;;15.90;99.90;;;;;;6771054;87;20212;-80
2022/04/29 09:33:35;;;;;;;19.60;11.05;;;17.10;99.90;;;;;;6770695;88;20197;-82
2022/04/29 09:43:43;;;;;;;21.20;11.50;;;17.90;99.90;;;;;;6778901;87;20710;-78
2022/04/29 10:03:47;;;;;;;17.80;11.20;;;19.10;99.80;;;;;;6703660;88;20634;-79
2022/04/29 10:13:49;;;;;;;17.35;11.10;;;19.40;98.20;;;;;;6761245;88;20185;-78
2022/04/29 10:33:53;;;;;;;17.00;10.88;;;20.40;95.20;;;;;;6760657;88;20296;-78
2022/04/29 10:53:58;;;;;;;16.97;10.50;;;20.30;96.10;;;;;;6777806;87;20188;-78
2022/04/29 11:03:59;;;;;;;16.37;9.75;;;21.60;94.10;;;;;;6779522;87;20314;-79
2022/04/29 12:14:41;;;;;;;23.17;12.23;;;20.30;93.70;;;;;;6778354;88;20217;-81
2022/04/29 12:24:42;;;;;;;18.62;11.38;;;21.10;93.70;;;;;;6776532;88;20217;-79
2022/04/29 12:34:48;;;;;;;18.20;10.20;;;21.30;92.40;;;;;;6777311;88;20175;-79
2022/04/29 12:55:16;;;;;;;17.23;10.98;;;21.50;92.60;;;;;;6776232;88;20188;-80
2022/04/29 13:05:16;;;;;;;23.62;11.50;;;21.70;92.20;;;;;;6781943;87;20207;-79
2022/04/29 13:15:17;;;;;;;19.90;11.57;;;22.30;91.10;;;;;;6808552;87;20732;-80
2022/04/29 14:45:49;;;;;;;15.60;9.63;;;18.80;92.90;;;;;;7146797;77;20238;31
2022/04/29 14:55:50;;;;;;;16.98;9.35;;;18.10;94.40;;;;;;6753886;88;20176;-80
2022/04/29 15:05:50;;;;;;;18.35;9.27;;;17.70;95.30;;;;;;6739268;88;20230;-78
2022/04/29 15:15:51;;;;;;;17.00;10.30;;;17.70;96.60;;;;;;6746357;88;20256;-79
2022/04/29 15:25:52;;;;;;;18.52;9.45;;;17.80;95.30;;;;;;6740567;88;20196;-79
2022/04/29 15:35:52;;;;;;;16.33;9.60;;;17.50;96.60;;;;;;6748639;88;20309;-79
2022/04/29 15:45:55;;;;;;;19.10;8.83;;;17.30;96.80;;;;;;6740220;87;20242;-79
2022/04/29 15:55:56;;;;;;;16.75;9.05;;;17.00;97.10;;;;;;6765936;88;20614;-79
2022/04/29 16:05:56;;;;;;;16.77;8.40;;;17.00;97.50;;;;;;6770640;88;20640;-78
2022/04/29 16:15:58;;;;;;;16.42;7.95;;;17.30;97.40;;;;;;6765575;88;22098;-80
2022/04/29 16:25:59;;;;;;;16.73;7.53;;;17.20;97.30;;;;;;6766368;88;20318;-80
2022/04/29 16:36:00;;;;;;;16.05;7.30;;;17.00;97.90;;;;;;6769143;87;20176;-82
2022/04/29 16:46:00;;;;;;;12.63;6.80;;;17.10;97.70;;;;;;6776434;87;20216;-83
2022/04/29 16:56:01;;;;;;;14.57;7.62;;;17.00;97.50;;;;;;6770398;88;20192;-80
2022/04/29 17:06:02;;;;;;;13.32;6.85;;;16.70;98.00;;;;;;6756469;88;20255;-79
2022/04/29 17:16:03;;;;;;;16.27;7.60;;;16.60;98.10;;;;;;6753141;88;20181;-80
2022/04/29 17:26:05;;;;;;;15.20;8.10;;;16.30;97.60;;;;;;6754337;88;20204;-83
2022/04/29 17:36:06;;;;;;;15.35;7.60;;;15.80;98.70;;;;;;6763298;88;20202;-80
2022/04/29 17:46:07;;;;;;;13.05;7.68;;;15.60;98.20;;;;;;6767167;88;20272;-83
2022/04/29 17:56:10;;;;;;;15.57;7.50;;;15.40;98.10;;;;;;6743251;88;20232;-81
2022/04/29 18:06:10;;;;;;;15.20;8.05;;;15.30;98.40;;;;;;6738028;88;20547;-80
2022/04/29 18:16:13;;;;;;;14.45;7.65;;;15.00;99.10;;;;;;6738123;88;20589;-80
2022/04/29 18:26:15;;;;;;;15.38;7.80;;;14.70;99.90;;;;;;6736465;88;20180;-82
2022/04/29 18:36:15;;;;;;;15.15;8.48;;;14.80;99.90;;;;;;6734706;88;20197;-81
2022/04/29 18:46:16;;;;;;;14.82;8.48;;;14.60;99.90;;;;;;6743052;88;20252;-80
2022/04/29 18:56:17;;;;;;;17.55;8.57;;;14.30;99.90;;;;;;6757936;88;20200;-82
2022/04/29 19:06:17;;;;;;;16.80;9.02;;;14.10;99.90;;;;;;6769116;88;20193;-80
2022/04/29 19:16:18;;;;;;;15.60;9.40;;;14.10;99.90;;;;;;6768216;88;20212;-81
2022/04/29 19:26:18;;;;;;;19.37;9.70;;;13.90;99.90;;;;;;6775001;88;20608;-81
2022/04/29 19:36:21;;;;;;;20.73;10.73;;;14.00;99.90;;;;;;6762982;88;20216;-80
2022/04/29 19:46:21;;;;;;;20.50;11.38;;;13.90;99.90;;;;;;6767512;88;20789;-80
2022/04/29 19:56:22;;;;;;;21.40;11.00;;;13.90;99.90;;;;;;6770084;88;20204;-81
2022/04/29 20:06:24;;;;;;;19.42;11.55;;;13.80;99.90;;;;;;6768747;88;20262;-80
2022/04/29 20:16:25;;;;;;;20.80;11.55;;;13.60;99.90;;;;;;6776607;87;20196;-81
2022/04/29 20:26:26;;;;;;;19.73;11.95;;;13.40;99.90;;;;;;6773169;88;20201;-81
2022/04/29 20:36:28;;;;;;;21.70;12.30;;;13.30;99.90;;;;;;6779668;88;20247;-80
2022/04/29 20:46:37;;;;;;;19.95;11.90;;;12.90;99.90;;;;;;6777888;88;20735;-81
2022/04/29 21:06:42;;;;;;;25.17;13.20;;;12.20;99.90;;;;;;6785349;87;20200;-82
2022/04/29 21:16:42;;;;;;;27.02;15.40;;;11.80;99.90;;;;;;6780309;88;20199;-84
2022/04/29 21:26:43;;;;;;;29.12;15.43;;;11.30;99.90;;;;;;6778408;88;20219;-83
2022/04/29 21:37:24;;;;;;;29.15;15.55;;;11.20;99.90;;;;;;6868129;76;20209;-79
2022/04/29 21:47:25;;;;;;;26.83;14.82;;;11.20;99.90;;;;;;6768566;88;20357;-79
2022/04/29 21:57:26;;;;;;;26.67;15.20;;;11.20;99.90;;;;;;6768907;88;20223;-78
2022/04/29 22:07:26;;;;;;;28.23;15.00;;;11.20;99.90;;;;;;6767715;88;20991;-78
2022/04/29 22:17:27;;;;;;;28.67;16.17;;;11.00;99.90;;;;;;6767379;88;20201;-79
2022/04/29 22:27:28;;;;;;;27.55;15.48;;;10.90;99.90;;;;;;6768087;88;20589;-78
2022/04/29 22:37:28;;;;;;;30.95;16.95;;;10.90;99.90;;;;;;6775527;88;20674;-78
2022/04/29 22:47:29;;;;;;;31.40;17.30;;;10.80;99.90;;;;;;6760549;88;20211;-79
2022/04/29 22:57:29;;;;;;;33.75;18.65;;;10.80;99.90;;;;;;6764281;88;20195;-79
2022/04/29 23:07:30;;;;;;;33.25;18.50;;;10.70;99.90;;;;;;6765943;88;20930;-80
2022/04/29 23:27:49;;;;;;;31.08;18.58;;;10.60;99.90;;;;;;6771004;88;20160;-79
2022/04/29 23:37:51;;;;;;;31.23;19.25;;;10.60;99.90;;;;;;6772654;88;20225;-80
2022/04/29 23:47:52;;;;;;;33.22;18.95;;;10.50;99.90;;;;;;6769686;88;20251;-80
2022/04/29 23:57:53;;;;;;;35.35;19.42;;;10.30;99.90;;;;;;6774424;88;20212;-80
